Time;durP1;ratioP1;P1;durP2;ratioP2;P2;SDS_P1;SDS_P2;PMS_P1;PMS_P2;Temp;Humidity;BMP_temperature;BMP_pressure;BME280_temperature;BME280_humidity;BME280_pressure;Samples;Min_cycle;Max_cycle;Signal;HPM_P1;HPM_P2
2021/09/12 00:02:08;;;;;;;0.80;0.40;;;16.50;99.90;;;;;;4883634;29;20895;-76
2021/09/12 00:04:36;;;;;;;0.80;0.40;;;16.50;99.90;;;;;;4881167;29;20486;-77
2021/09/12 00:07:04;;;;;;;0.80;0.40;;;16.40;99.90;;;;;;4882493;29;20501;-78
2021/09/12 00:09:34;;;;;;;0.80;0.40;;;16.40;99.90;;;;;;4881350;29;20440;-77
2021/09/12 00:12:03;;;;;;;0.80;0.50;;;16.40;99.90;;;;;;4882008;29;20479;-78
2021/09/12 00:14:31;;;;;;;0.80;0.40;;;16.30;99.90;;;;;;4881637;29;20882;-78
2021/09/12 00:16:59;;;;;;;0.80;0.40;;;16.30;99.90;;;;;;4886805;29;20398;-77
2021/09/12 00:19:27;;;;;;;0.87;0.50;;;16.30;99.90;;;;;;4889732;29;20420;-77
2021/09/12 00:21:55;;;;;;;0.80;0.40;;;16.40;99.90;;;;;;4891480;29;20435;-77
2021/09/12 00:24:23;;;;;;;0.80;0.40;;;16.30;99.90;;;;;;4888095;29;20433;-78
2021/09/12 00:26:53;;;;;;;0.80;0.40;;;16.30;99.90;;;;;;4886159;29;20814;-77
2021/09/12 00:29:21;;;;;;;0.80;0.40;;;16.30;99.90;;;;;;4882419;29;20455;-77
2021/09/12 00:31:49;;;;;;;0.80;0.40;;;16.30;99.90;;;;;;4878974;29;21081;-78
2021/09/12 00:34:17;;;;;;;0.80;0.40;;;16.30;99.90;;;;;;4879826;29;20786;-76
2021/09/12 00:36:45;;;;;;;0.80;0.40;;;16.30;99.90;;;;;;4879811;29;20776;-76
2021/09/12 00:39:13;;;;;;;0.90;0.50;;;16.30;99.90;;;;;;4880508;29;20498;-76
2021/09/12 00:41:43;;;;;;;0.80;0.40;;;16.30;99.90;;;;;;4882526;29;20426;-77
2021/09/12 00:44:13;;;;;;;0.80;0.40;;;16.30;99.90;;;;;;4885012;29;20524;-77
2021/09/12 00:46:44;;;;;;;1.00;0.90;;;16.40;99.90;;;;;;4887429;29;20487;-78
2021/09/12 00:49:13;;;;;;;0.80;0.40;;;16.40;99.90;;;;;;4881337;29;20410;-77
2021/09/12 00:51:41;;;;;;;0.80;0.40;;;16.40;99.90;;;;;;4880669;29;20479;-76
2021/09/12 00:54:11;;;;;;;0.80;0.40;;;16.40;99.90;;;;;;4880873;29;20483;-77
2021/09/12 00:56:41;;;;;;;0.80;0.40;;;16.40;99.90;;;;;;4881456;29;20398;-78
2021/09/12 00:59:15;;;;;;;0.80;0.40;;;16.40;99.90;;;;;;4882571;29;20411;-77
2021/09/12 01:01:43;;;;;;;0.80;0.50;;;16.30;99.90;;;;;;4881965;29;20472;-78
2021/09/12 01:04:12;;;;;;;0.80;0.40;;;16.30;99.90;;;;;;4882270;29;20470;-78
2021/09/12 01:06:41;;;;;;;0.80;0.40;;;16.30;99.90;;;;;;4881113;29;20475;-78
2021/09/12 01:09:09;;;;;;;0.80;0.40;;;16.30;99.90;;;;;;4880634;29;20455;-77
2021/09/12 01:11:37;;;;;;;0.80;0.40;;;16.20;99.90;;;;;;4880483;29;20958;-77
2021/09/12 01:14:05;;;;;;;0.80;0.40;;;16.20;99.90;;;;;;4880384;29;20490;-78
2021/09/12 01:16:34;;;;;;;0.80;0.40;;;16.20;99.90;;;;;;4877694;29;20439;-76
2021/09/12 01:19:03;;;;;;;0.80;0.50;;;16.20;99.90;;;;;;4878646;29;20397;-76
2021/09/12 01:21:32;;;;;;;0.80;0.40;;;16.20;99.90;;;;;;4878992;29;20437;-77
2021/09/12 01:24:00;;;;;;;0.80;0.40;;;16.20;99.90;;;;;;4879651;29;20426;-76
2021/09/12 01:26:30;;;;;;;0.80;0.40;;;16.20;99.90;;;;;;4878769;29;20442;-76
2021/09/12 01:28:58;;;;;;;0.80;0.50;;;16.10;99.90;;;;;;4878896;29;20410;-78
2021/09/12 01:31:28;;;;;;;0.80;0.40;;;16.10;99.90;;;;;;4878948;29;20518;-78
2021/09/12 01:33:57;;;;;;;0.80;0.40;;;16.10;99.90;;;;;;4877416;29;20566;-77
2021/09/12 01:36:26;;;;;;;0.80;0.40;;;16.10;99.90;;;;;;4881124;29;20400;-78
2021/09/12 01:38:54;;;;;;;0.80;0.40;;;16.10;99.90;;;;;;4884381;29;20410;-77
2021/09/12 01:41:22;;;;;;;0.80;0.40;;;16.00;99.90;;;;;;4887552;29;20406;-77
2021/09/12 01:43:54;;;;;;;0.80;0.40;;;16.00;99.90;;;;;;4883731;29;20422;-77
2021/09/12 01:46:23;;;;;;;0.80;0.40;;;15.90;99.90;;;;;;4885773;29;20428;-77
2021/09/12 01:48:52;;;;;;;0.80;0.40;;;15.90;99.90;;;;;;4880070;29;20858;-77
2021/09/12 01:51:20;;;;;;;0.80;0.40;;;15.90;99.90;;;;;;4878798;29;20494;-78
2021/09/12 01:53:48;;;;;;;0.80;0.50;;;15.90;99.90;;;;;;4880652;29;20463;-77
2021/09/12 01:56:17;;;;;;;0.80;0.40;;;15.90;99.90;;;;;;4880840;29;20619;-77
2021/09/12 01:58:45;;;;;;;0.80;0.50;;;15.80;99.90;;;;;;4881958;29;20406;-77
2021/09/12 02:01:14;;;;;;;0.80;0.40;;;15.90;99.90;;;;;;4880534;29;20929;-77
2021/09/12 02:03:43;;;;;;;1.00;0.60;;;15.80;99.90;;;;;;4924562;23;20869;-81
2021/09/12 02:06:11;;;;;;;0.80;0.40;;;15.90;99.90;;;;;;4928984;29;20412;-80
2021/09/12 02:08:40;;;;;;;0.80;0.40;;;15.90;99.90;;;;;;4931374;29;20429;-80
2021/09/12 02:11:08;;;;;;;0.80;0.40;;;15.90;99.90;;;;;;4913403;29;20514;-80
2021/09/12 02:13:36;;;;;;;0.80;0.40;;;15.90;99.90;;;;;;4922880;29;20904;-80
2021/09/12 02:16:05;;;;;;;0.80;0.40;;;15.90;99.90;;;;;;4911997;29;20397;-80
2021/09/12 02:18:34;;;;;;;0.80;0.40;;;15.90;99.90;;;;;;4911306;29;20465;-78
2021/09/12 02:21:03;;;;;;;0.80;0.40;;;15.90;99.90;;;;;;4910491;29;20478;-79
2021/09/12 02:23:31;;;;;;;0.80;0.40;;;15.90;99.90;;;;;;4894301;29;20466;-81
2021/09/12 02:25:59;;;;;;;0.80;0.40;;;15.90;99.90;;;;;;4911210;29;20413;-80
2021/09/12 02:28:27;;;;;;;0.80;0.40;;;15.90;99.90;;;;;;4893141;29;20419;-79
2021/09/12 02:30:55;;;;;;;0.80;0.40;;;15.90;99.90;;;;;;4912079;29;20390;-81
2021/09/12 02:33:23;;;;;;;0.80;0.40;;;15.90;99.90;;;;;;4914294;29;20424;-79
2021/09/12 02:35:53;;;;;;;0.80;0.40;;;15.90;99.90;;;;;;4919777;29;20438;-79
2021/09/12 02:38:21;;;;;;;0.80;0.40;;;15.90;99.90;;;;;;4919330;29;20467;-80
2021/09/12 02:40:49;;;;;;;0.80;0.50;;;15.90;99.90;;;;;;4912759;29;20873;-80
2021/09/12 02:43:17;;;;;;;0.80;0.40;;;15.80;99.90;;;;;;4912813;29;20449;-81
2021/09/12 02:45:45;;;;;;;0.80;0.40;;;15.80;99.90;;;;;;4911836;29;20423;-80
2021/09/12 02:48:13;;;;;;;0.80;0.50;;;15.80;99.90;;;;;;4912116;29;20397;-80
2021/09/12 02:50:41;;;;;;;0.80;0.40;;;15.80;99.90;;;;;;4911740;29;20439;-79
2021/09/12 02:53:11;;;;;;;0.80;0.40;;;15.80;99.90;;;;;;4911455;29;20993;-81
2021/09/12 02:55:39;;;;;;;0.80;0.40;;;15.80;99.90;;;;;;4912540;29;20431;-80
2021/09/12 02:58:07;;;;;;;0.80;0.50;;;15.80;99.90;;;;;;4896988;29;20421;-81
2021/09/12 03:00:35;;;;;;;0.80;0.40;;;15.80;99.90;;;;;;4899060;29;20435;-79
2021/09/12 03:03:03;;;;;;;0.80;0.50;;;15.80;99.90;;;;;;4905903;29;20529;-81
2021/09/12 03:05:31;;;;;;;0.80;0.40;;;15.80;99.90;;;;;;4923331;29;20426;-79
2021/09/12 03:07:59;;;;;;;0.80;0.40;;;15.80;99.90;;;;;;4923478;29;20418;-80
2021/09/12 03:10:29;;;;;;;0.80;0.40;;;15.70;99.90;;;;;;4923673;29;20390;-81
2021/09/12 03:12:57;;;;;;;0.80;0.40;;;15.70;99.90;;;;;;4912196;29;20462;-80
2021/09/12 03:15:25;;;;;;;0.80;0.40;;;15.70;99.90;;;;;;4909620;29;20374;-80
2021/09/12 03:17:53;;;;;;;0.80;0.40;;;15.70;99.90;;;;;;4910674;29;20862;-80
2021/09/12 03:20:22;;;;;;;0.80;0.40;;;15.60;99.90;;;;;;4895266;29;20432;-80
2021/09/12 03:22:50;;;;;;;0.80;0.40;;;15.60;99.90;;;;;;4910445;29;20451;-80
2021/09/12 03:25:19;;;;;;;0.80;0.40;;;15.50;99.90;;;;;;4911184;29;20957;-81
2021/09/12 03:27:48;;;;;;;0.80;0.40;;;15.50;99.90;;;;;;4909095;29;20441;-80
2021/09/12 03:30:16;;;;;;;0.80;0.40;;;15.50;99.90;;;;;;4907295;29;20435;-80
2021/09/12 03:32:44;;;;;;;0.80;0.40;;;15.50;99.90;;;;;;4907240;29;20457;-80
2021/09/12 03:35:13;;;;;;;0.80;0.40;;;15.60;99.90;;;;;;4909827;29;20626;-78
2021/09/12 03:37:41;;;;;;;0.80;0.50;;;15.50;99.90;;;;;;4893808;29;20465;-78
2021/09/12 03:40:10;;;;;;;0.80;0.40;;;15.40;99.90;;;;;;4909688;29;20498;-78
2021/09/12 03:42:38;;;;;;;0.80;0.40;;;15.50;99.90;;;;;;4909525;29;20426;-80
2021/09/12 03:45:09;;;;;;;0.80;0.40;;;15.40;99.90;;;;;;4906113;29;20413;-79
2021/09/12 03:47:37;;;;;;;0.80;0.40;;;15.50;99.90;;;;;;4906649;29;20405;-80
2021/09/12 03:50:06;;;;;;;0.80;0.40;;;15.40;99.90;;;;;;4906439;29;20457;-79
2021/09/12 03:52:34;;;;;;;0.80;0.40;;;15.40;99.90;;;;;;4905623;29;20504;-79
2021/09/12 03:55:02;;;;;;;0.80;0.40;;;15.40;99.90;;;;;;4906258;29;20428;-82
2021/09/12 03:57:30;;;;;;;0.80;0.50;;;15.30;99.90;;;;;;4906482;29;20452;-81
2021/09/12 03:59:58;;;;;;;0.80;0.40;;;15.30;99.90;;;;;;4907223;29;20419;-80
2021/09/12 04:02:28;;;;;;;0.80;0.40;;;15.30;99.90;;;;;;4906079;29;20389;-80
2021/09/12 04:04:56;;;;;;;0.80;0.40;;;15.30;99.90;;;;;;4905613;29;20470;-80
2021/09/12 04:07:24;;;;;;;0.80;0.40;;;15.30;99.90;;;;;;4907360;29;20495;-79
2021/09/12 04:09:52;;;;;;;0.80;0.40;;;15.30;99.90;;;;;;4908130;29;20833;-79
2021/09/12 04:12:20;;;;;;;0.80;0.40;;;15.20;99.90;;;;;;4908454;29;20967;-78
2021/09/12 04:14:48;;;;;;;0.80;0.40;;;15.20;99.90;;;;;;4891696;29;20455;-79
2021/09/12 04:17:16;;;;;;;0.80;0.40;;;15.20;99.90;;;;;;4908638;29;20431;-79
2021/09/12 04:19:46;;;;;;;0.80;0.40;;;15.20;99.90;;;;;;4909226;29;20413;-79
2021/09/12 04:22:14;;;;;;;0.80;0.40;;;15.30;99.90;;;;;;4909299;29;20453;-79
2021/09/12 04:24:42;;;;;;;0.80;0.40;;;15.30;99.90;;;;;;4909781;29;20450;-79
2021/09/12 04:27:10;;;;;;;0.80;0.40;;;15.30;99.90;;;;;;4906335;29;21150;-80
2021/09/12 04:29:39;;;;;;;0.80;0.50;;;15.30;99.90;;;;;;4904796;29;21004;-78
2021/09/12 04:32:07;;;;;;;0.80;0.40;;;15.30;99.90;;;;;;4888678;29;21035;-81
2021/09/12 04:34:36;;;;;;;0.80;0.50;;;15.40;99.90;;;;;;4903839;29;20424;-80
2021/09/12 04:37:06;;;;;;;0.80;0.50;;;15.40;99.90;;;;;;4903588;29;20408;-79
2021/09/12 04:39:34;;;;;;;0.80;0.40;;;15.30;99.90;;;;;;4903467;29;20429;-80
2021/09/12 04:42:02;;;;;;;0.80;0.40;;;15.30;99.90;;;;;;4888094;29;20870;-81
2021/09/12 04:44:31;;;;;;;0.80;0.40;;;15.30;99.90;;;;;;4903976;29;20450;-79
2021/09/12 04:46:59;;;;;;;0.80;0.40;;;15.30;99.90;;;;;;4905071;29;20405;-79
2021/09/12 04:49:27;;;;;;;0.80;0.40;;;15.40;99.90;;;;;;4886890;29;20408;-80
2021/09/12 04:51:55;;;;;;;0.80;0.40;;;15.30;99.90;;;;;;4908019;29;20416;-81
2021/09/12 04:54:24;;;;;;;0.80;0.40;;;15.30;99.90;;;;;;4908483;29;21046;-81
2021/09/12 04:56:52;;;;;;;0.80;0.40;;;15.30;99.90;;;;;;4908005;29;20431;-79
2021/09/12 04:59:21;;;;;;;0.80;0.50;;;15.30;99.90;;;;;;4909913;29;20433;-79
2021/09/12 05:01:49;;;;;;;0.80;0.40;;;15.30;99.90;;;;;;4906878;29;20619;-79
2021/09/12 05:04:17;;;;;;;0.80;0.40;;;15.40;99.90;;;;;;4906001;29;20496;-80
2021/09/12 05:06:45;;;;;;;0.80;0.40;;;15.40;99.90;;;;;;4905453;29;20463;-77
2021/09/12 05:09:13;;;;;;;0.80;0.50;;;15.50;99.90;;;;;;4904224;29;20468;-77
2021/09/12 05:11:43;;;;;;;0.80;0.40;;;15.50;99.90;;;;;;4888261;29;20609;-79
2021/09/12 05:14:11;;;;;;;0.80;0.43;;;15.50;99.90;;;;;;4906360;29;20484;-78
2021/09/12 05:16:39;;;;;;;0.80;0.40;;;15.60;99.90;;;;;;4906324;29;20518;-77
2021/09/12 05:19:07;;;;;;;0.80;0.40;;;15.70;99.90;;;;;;4905888;29;20469;-79
2021/09/12 05:21:36;;;;;;;0.80;0.40;;;15.80;99.90;;;;;;4905983;29;20988;-79
2021/09/12 05:24:04;;;;;;;0.80;0.40;;;15.90;99.90;;;;;;4906870;29;20425;-78
2021/09/12 05:26:32;;;;;;;0.80;0.40;;;16.00;99.90;;;;;;4907013;29;20389;-79
2021/09/12 05:29:02;;;;;;;0.80;0.40;;;16.10;99.90;;;;;;4906379;29;20407;-79
2021/09/12 05:31:30;;;;;;;0.80;0.50;;;16.20;99.90;;;;;;4905896;29;20774;-78
2021/09/12 05:33:58;;;;;;;0.80;0.40;;;16.40;99.90;;;;;;4900586;29;20445;-78
2021/09/12 05:36:26;;;;;;;0.80;0.40;;;16.50;99.90;;;;;;4901909;29;20427;-78
2021/09/12 05:38:54;;;;;;;0.80;0.40;;;16.60;99.90;;;;;;4893561;29;20413;-79
2021/09/12 05:41:22;;;;;;;0.80;0.50;;;16.80;99.90;;;;;;4902773;29;20437;-79
2021/09/12 05:43:50;;;;;;;0.80;0.40;;;17.00;99.90;;;;;;4908664;29;20437;-77
2021/09/12 05:46:21;;;;;;;0.80;0.40;;;17.30;99.90;;;;;;4899590;29;20410;-77
2021/09/12 05:48:49;;;;;;;0.80;0.40;;;17.50;99.90;;;;;;4904521;29;20437;-77
2021/09/12 05:51:17;;;;;;;0.80;0.40;;;17.70;99.90;;;;;;4899814;29;20438;-80
2021/09/12 05:53:45;;;;;;;0.90;0.40;;;17.70;99.90;;;;;;4915309;29;20464;-77
2021/09/12 05:56:13;;;;;;;0.80;0.40;;;17.70;99.90;;;;;;4917202;29;20426;-78
2021/09/12 05:58:41;;;;;;;0.90;0.40;;;17.80;99.90;;;;;;4917372;29;20467;-75
2021/09/12 06:01:09;;;;;;;0.90;0.40;;;17.90;99.90;;;;;;4918643;29;20436;-76
2021/09/12 06:03:39;;;;;;;0.90;0.50;;;17.90;99.90;;;;;;4921285;29;20448;-76
2021/09/12 06:06:07;;;;;;;0.90;0.40;;;17.90;99.90;;;;;;4916886;29;20461;-77
2021/09/12 06:08:35;;;;;;;0.90;0.40;;;18.00;99.90;;;;;;4894130;29;20446;-77
2021/09/12 06:11:03;;;;;;;0.90;0.40;;;18.00;99.90;;;;;;4911084;29;20868;-78
2021/09/12 06:13:31;;;;;;;0.90;0.40;;;18.10;99.90;;;;;;4891171;29;20931;-77
2021/09/12 06:16:00;;;;;;;0.90;0.40;;;18.10;99.90;;;;;;4891095;29;20439;-77
2021/09/12 06:18:28;;;;;;;0.90;0.40;;;18.40;99.90;;;;;;4889216;29;20410;-76
2021/09/12 06:20:57;;;;;;;0.90;0.40;;;18.60;99.90;;;;;;4895623;29;20415;-75
2021/09/12 06:23:25;;;;;;;0.90;0.40;;;18.80;99.90;;;;;;4905702;29;20465;-76
2021/09/12 06:25:53;;;;;;;0.90;0.50;;;18.90;99.90;;;;;;4917173;29;20425;-75
2021/09/12 06:28:22;;;;;;;0.90;0.40;;;18.90;99.90;;;;;;4923654;29;20484;-75
2021/09/12 06:30:50;;;;;;;0.90;0.40;;;18.90;99.90;;;;;;4924263;29;21208;-75
2021/09/12 06:33:18;;;;;;;0.90;0.40;;;18.90;99.90;;;;;;4923732;29;20433;-76
2021/09/12 06:35:46;;;;;;;0.90;0.40;;;18.80;99.90;;;;;;4915035;29;20434;-78
2021/09/12 06:38:16;;;;;;;0.90;0.40;;;18.70;99.90;;;;;;4896193;29;20428;-78
2021/09/12 06:40:44;;;;;;;0.90;0.40;;;18.60;99.90;;;;;;4915715;29;20458;-79
2021/09/12 06:43:12;;;;;;;0.90;0.40;;;18.70;99.90;;;;;;4893464;29;20492;-78
2021/09/12 06:45:40;;;;;;;0.90;0.40;;;18.70;99.90;;;;;;4912971;29;20537;-78
2021/09/12 06:48:08;;;;;;;0.90;0.40;;;18.80;99.90;;;;;;4909171;29;20437;-77
2021/09/12 06:50:36;;;;;;;0.90;0.40;;;19.00;99.90;;;;;;4911237;29;20393;-78
2021/09/12 06:53:05;;;;;;;0.90;0.40;;;19.20;99.90;;;;;;4894427;29;20462;-78
2021/09/12 06:55:34;;;;;;;0.90;0.40;;;19.40;99.90;;;;;;4894682;29;20542;-79
2021/09/12 06:58:02;;;;;;;0.90;0.40;;;19.40;86.40;;;;;;4893559;29;20447;-79
2021/09/12 07:00:31;;;;;;;0.90;0.40;;;19.40;1.00;;;;;;4910550;29;20408;-77
2021/09/12 07:03:00;;;;;;;0.90;0.40;;;19.40;18.20;;;;;;4910045;29;20445;-77
2021/09/12 07:05:28;;;;;;;0.90;0.40;;;19.50;94.00;;;;;;4913298;29;20401;-79
2021/09/12 07:07:57;;;;;;;0.90;0.40;;;19.50;1.00;;;;;;4912846;29;20509;-80
2021/09/12 07:10:25;;;;;;;0.90;0.40;;;19.50;1.00;;;;;;4910681;29;20444;-77
2021/09/12 07:12:55;;;;;;;0.90;0.40;;;19.50;1.00;;;;;;4912198;29;20421;-78
2021/09/12 07:15:24;;;;;;;0.90;0.40;;;19.40;1.00;;;;;;4914395;29;20481;-79
2021/09/12 07:17:52;;;;;;;0.90;0.40;;;19.40;1.00;;;;;;4914242;29;20413;-76
2021/09/12 07:20:20;;;;;;;0.90;0.40;;;19.40;7.60;;;;;;4900682;29;20474;-78
2021/09/12 07:22:51;;;;;;;0.90;0.40;;;19.50;1.00;;;;;;4920291;29;20507;-77
2021/09/12 07:25:20;;;;;;;0.90;0.40;;;19.70;1.00;;;;;;4919753;29;20426;-77
2021/09/12 07:27:49;;;;;;;0.90;0.40;;;19.90;1.00;;;;;;4917326;29;20413;-76
2021/09/12 07:30:18;;;;;;;0.90;0.40;;;20.00;1.00;;;;;;4918102;29;20417;-76
2021/09/12 07:32:46;;;;;;;0.90;0.43;;;20.30;1.00;;;;;;4916151;29;20393;-77
2021/09/12 07:35:15;;;;;;;0.90;0.40;;;20.30;1.00;;;;;;4909151;29;20472;-78
2021/09/12 07:37:44;;;;;;;0.90;0.40;;;20.30;1.00;;;;;;4904750;29;20417;-79
2021/09/12 07:40:12;;;;;;;0.90;0.60;;;20.30;99.90;;;;;;4904576;29;20929;-80
2021/09/12 07:42:42;;;;;;;0.90;0.40;;;20.20;1.00;;;;;;4903483;29;20441;-79
2021/09/12 07:45:10;;;;;;;0.90;0.40;;;20.10;1.00;;;;;;4903149;29;20413;-80
2021/09/12 07:47:40;;;;;;;0.90;0.40;;;20.10;1.00;;;;;;4885500;29;20481;-79
2021/09/12 07:50:09;;;;;;;0.90;0.40;;;20.00;1.00;;;;;;4886325;29;20553;-81
2021/09/12 07:52:42;;;;;;;0.90;0.40;;;20.00;1.00;;;;;;4889311;29;20446;-81
2021/09/12 07:55:11;;;;;;;0.90;0.40;;;20.00;1.00;;;;;;4906311;29;20852;-82
2021/09/12 07:57:39;;;;;;;0.90;0.40;;;19.90;1.00;;;;;;4901523;29;20401;-81
2021/09/12 08:00:10;;;;;;;0.90;0.40;;;19.90;1.00;;;;;;4900794;29;21138;-82
2021/09/12 08:02:40;;;;;;;0.90;0.40;;;19.90;1.00;;;;;;4904719;29;20502;-83
2021/09/12 08:05:15;;;;;;;0.90;0.40;;;20.10;1.00;;;;;;4927426;23;20646;-72
2021/09/12 08:07:44;;;;;;;0.90;0.40;;;20.40;1.00;;;;;;4884146;29;20972;-72
2021/09/12 08:10:12;;;;;;;0.90;0.40;;;20.50;1.00;;;;;;4870726;29;20422;-71
2021/09/12 08:12:46;;;;;;;0.90;0.40;;;20.70;99.90;;;;;;4892471;29;20438;-73
2021/09/12 08:15:17;;;;;;;0.90;0.40;;;20.90;99.90;;;;;;4870738;29;20554;-72
2021/09/12 08:17:48;;;;;;;0.90;0.40;;;21.00;99.90;;;;;;4889275;29;20410;-71
2021/09/12 08:20:17;;;;;;;0.90;0.40;;;20.80;99.90;;;;;;4890441;29;20402;-73
2021/09/12 08:22:46;;;;;;;0.90;0.40;;;20.50;99.90;;;;;;4873555;29;20471;-72
2021/09/12 08:25:15;;;;;;;0.90;0.40;;;20.50;99.90;;;;;;4874260;29;20444;-71
2021/09/12 08:27:43;;;;;;;0.90;0.40;;;20.50;1.00;;;;;;4890542;29;20402;-73
2021/09/12 08:30:11;;;;;;;0.90;0.40;;;20.50;1.00;;;;;;4873304;29;20486;-74
2021/09/12 08:32:40;;;;;;;0.90;0.40;;;20.60;1.00;;;;;;4889441;29;20421;-70
2021/09/12 08:35:11;;;;;;;0.90;0.40;;;20.60;1.00;;;;;;4869947;29;20461;-72
2021/09/12 08:37:39;;;;;;;0.90;0.40;;;20.80;1.00;;;;;;4885907;29;20546;-71
2021/09/12 08:40:10;;;;;;;0.90;0.40;;;20.80;99.90;;;;;;4886582;29;20417;-72
2021/09/12 08:42:41;;;;;;;0.90;0.40;;;20.80;99.90;;;;;;4875352;29;20548;-72
2021/09/12 08:45:09;;;;;;;0.90;0.50;;;20.90;99.90;;;;;;4876869;29;20398;-71
2021/09/12 08:47:38;;;;;;;0.90;0.40;;;21.10;99.90;;;;;;4876865;29;20952;-72
2021/09/12 08:50:10;;;;;;;0.90;0.40;;;21.10;99.90;;;;;;4876751;29;20822;-72
2021/09/12 08:52:38;;;;;;;0.90;0.40;;;20.90;99.90;;;;;;4876190;29;20458;-73
2021/09/12 08:55:07;;;;;;;0.90;0.40;;;20.70;99.90;;;;;;4877158;29;20497;-74
2021/09/12 08:57:35;;;;;;;0.90;0.40;;;20.50;99.90;;;;;;4877294;29;20439;-72
2021/09/12 09:00:15;;;;;;;0.90;0.40;;;20.50;1.00;;;;;;4877097;29;20427;-72
2021/09/12 09:02:43;;;;;;;0.90;0.40;;;20.50;1.00;;;;;;4858907;29;20865;-70
2021/09/12 09:05:13;;;;;;;0.90;0.40;;;20.90;1.00;;;;;;4876624;29;20678;-73
2021/09/12 09:07:41;;;;;;;0.90;0.40;;;21.20;99.90;;;;;;4876276;29;20446;-72
2021/09/12 09:10:19;;;;;;;0.90;0.40;;;21.50;99.90;;;;;;4860313;29;20432;-72
2021/09/12 09:12:49;;;;;;;0.90;0.40;;;21.70;99.90;;;;;;4859822;29;20445;-72
2021/09/12 09:15:20;;;;;;;0.90;0.40;;;21.90;99.90;;;;;;4876394;29;20834;-72
2021/09/12 09:17:50;;;;;;;0.90;0.40;;;22.30;99.90;;;;;;4876367;29;20499;-72
2021/09/12 09:20:26;;;;;;;0.90;0.40;;;22.70;99.90;;;;;;4876948;29;20431;-72
2021/09/12 09:22:57;;;;;;;0.90;0.40;;;22.90;99.90;;;;;;4872281;29;20461;-71
2021/09/12 09:25:27;;;;;;;0.90;0.40;;;23.20;99.90;;;;;;4875883;29;20439;-72
2021/09/12 09:28:01;;;;;;;0.90;0.40;;;23.20;99.90;;;;;;4876173;29;20487;-70
2021/09/12 09:30:34;;;;;;;0.90;0.40;;;22.80;99.90;;;;;;4876460;29;20467;-71
2021/09/12 09:33:17;;;;;;;0.90;0.40;;;22.70;99.90;;;;;;4859726;29;21013;-71
2021/09/12 09:35:59;;;;;;;0.90;0.40;;;22.50;99.90;;;;;;4859079;29;20482;-74
2021/09/12 09:38:30;;;;;;;0.90;0.40;;;22.30;99.90;;;;;;4876260;29;20402;-70
2021/09/12 09:41:09;;;;;;;0.90;0.40;;;22.10;99.90;;;;;;4876202;29;20394;-70
2021/09/12 09:43:43;;;;;;;0.90;0.40;;;22.40;99.90;;;;;;4875360;29;20425;-70
2021/09/12 09:46:29;;;;;;;0.90;0.40;;;22.70;99.90;;;;;;4875949;29;20430;-71
2021/09/12 09:48:59;;;;;;;0.90;0.40;;;23.00;99.90;;;;;;4875961;29;20430;-70
2021/09/12 09:51:30;;;;;;;0.90;0.40;;;23.30;99.90;;;;;;4875843;29;20435;-70
2021/09/12 09:53:59;;;;;;;0.90;0.40;;;23.60;99.90;;;;;;4876270;29;20438;-70
2021/09/12 09:56:30;;;;;;;0.90;0.40;;;23.80;99.90;;;;;;4876031;29;20617;-70
2021/09/12 09:59:00;;;;;;;0.90;0.40;;;24.10;99.90;;;;;;4876174;29;20831;-70
2021/09/12 10:01:30;;;;;;;0.90;0.40;;;24.10;99.90;;;;;;4875898;29;20415;-70
2021/09/12 10:04:00;;;;;;;0.90;0.40;;;24.30;99.90;;;;;;4876471;29;20446;-69
2021/09/12 10:06:31;;;;;;;0.90;0.40;;;24.10;99.90;;;;;;4876431;29;20428;-71
2021/09/12 10:09:00;;;;;;;0.90;0.40;;;23.90;99.90;;;;;;4875140;29;20496;-70
2021/09/12 10:11:28;;;;;;;0.90;0.40;;;24.00;99.90;;;;;;4875670;29;20478;-71
2021/09/12 10:13:58;;;;;;;0.90;0.40;;;24.20;99.90;;;;;;4875818;29;20427;-72
2021/09/12 10:16:27;;;;;;;0.90;0.40;;;24.30;99.90;;;;;;4876181;29;20475;-73
2021/09/12 10:18:55;;;;;;;0.90;0.40;;;24.20;99.90;;;;;;4876924;29;20453;-70
2021/09/12 10:21:30;;;;;;;0.90;0.40;;;24.20;99.90;;;;;;4879686;29;20440;-70
2021/09/12 10:24:00;;;;;;;0.90;0.40;;;24.30;99.90;;;;;;4877357;29;20424;-70
2021/09/12 10:26:37;;;;;;;0.90;0.40;;;24.20;99.90;;;;;;4877309;29;20777;-71
2021/09/12 10:29:16;;;;;;;0.90;0.40;;;24.20;99.90;;;;;;4882075;29;20463;-71
2021/09/12 10:31:45;;;;;;;0.90;0.40;;;24.20;99.90;;;;;;4882603;29;20450;-72
2021/09/12 10:34:14;;;;;;;1.13;0.70;;;24.10;99.90;;;;;;4882400;29;20487;-72
2021/09/12 10:36:45;;;;;;;0.90;0.40;;;23.70;99.90;;;;;;4882426;29;20466;-70
2021/09/12 10:39:28;;;;;;;0.90;0.40;;;23.50;99.90;;;;;;4881500;29;20415;-70
2021/09/12 10:42:16;;;;;;;1.20;0.63;;;23.40;99.90;;;;;;4879912;29;20454;-70
2021/09/12 10:44:45;;;;;;;1.30;0.73;;;23.50;99.90;;;;;;4878684;29;21062;-72
2021/09/12 10:47:15;;;;;;;0.90;0.40;;;23.70;99.90;;;;;;4878951;29;20427;-71
2021/09/12 10:49:43;;;;;;;0.90;0.40;;;23.90;99.90;;;;;;4878742;29;20911;-73
2021/09/12 10:52:45;;;;;;;0.90;0.40;;;23.80;99.90;;;;;;4878898;29;20491;-70
2021/09/12 10:55:14;;;;;;;0.90;0.40;;;23.50;99.90;;;;;;4878665;29;20445;-71
2021/09/12 10:57:42;;;;;;;0.90;0.40;;;23.30;99.90;;;;;;4878714;29;20438;-70
2021/09/12 11:00:11;;;;;;;0.90;0.40;;;23.30;99.90;;;;;;4878289;29;20414;-69
2021/09/12 11:02:42;;;;;;;0.90;0.40;;;23.10;99.90;;;;;;4878850;29;20476;-70
2021/09/12 11:05:25;;;;;;;0.90;0.40;;;23.20;99.90;;;;;;4878140;29;20803;-70
2021/09/12 11:07:56;;;;;;;0.90;0.40;;;23.20;99.90;;;;;;4878652;29;20429;-73
2021/09/12 11:10:41;;;;;;;0.90;0.40;;;23.20;99.90;;;;;;4878168;29;20526;-70
2021/09/12 11:13:10;;;;;;;0.90;0.40;;;23.30;99.90;;;;;;4877698;29;20425;-71
2021/09/12 11:15:38;;;;;;;0.90;0.40;;;23.40;99.90;;;;;;4875234;29;20792;-71
2021/09/12 11:18:06;;;;;;;0.90;0.40;;;23.30;99.90;;;;;;4878816;29;20509;-69
2021/09/12 11:20:42;;;;;;;0.90;0.40;;;23.40;99.90;;;;;;4879152;29;20427;-69
2021/09/12 11:23:26;;;;;;;0.90;0.40;;;23.30;99.90;;;;;;4860212;29;20456;-70
2021/09/12 11:25:57;;;;;;;0.90;0.40;;;23.10;99.90;;;;;;4859866;29;20880;-70
2021/09/12 11:28:27;;;;;;;0.90;0.40;;;22.90;99.90;;;;;;4859834;29;20981;-70
2021/09/12 11:30:57;;;;;;;0.90;0.40;;;22.80;99.90;;;;;;4843178;29;20422;-71
2021/09/12 11:33:47;;;;;;;0.90;0.40;;;22.60;99.90;;;;;;4859554;29;20431;-70
2021/09/12 11:36:15;;;;;;;0.90;0.40;;;22.50;99.90;;;;;;4865057;29;20463;-70
2021/09/12 11:38:54;;;;;;;0.90;0.40;;;22.50;99.90;;;;;;4876997;29;20466;-70
2021/09/12 11:41:23;;;;;;;0.90;0.40;;;22.70;99.90;;;;;;4861786;29;20954;-70
2021/09/12 11:43:56;;;;;;;0.90;0.40;;;22.80;99.90;;;;;;4878863;29;20412;-70
2021/09/12 11:46:25;;;;;;;0.90;0.40;;;23.10;99.90;;;;;;4878682;29;20415;-72
2021/09/12 11:48:54;;;;;;;0.90;0.40;;;23.50;99.90;;;;;;4879648;29;20466;-70
2021/09/12 11:51:31;;;;;;;0.90;0.40;;;23.70;99.90;;;;;;4879847;29;20411;-71
2021/09/12 11:54:08;;;;;;;0.90;0.40;;;23.50;99.90;;;;;;4879729;29;20518;-70
2021/09/12 11:56:36;;;;;;;0.90;0.40;;;23.10;99.90;;;;;;4861563;29;20989;-71
2021/09/12 11:59:05;;;;;;;0.90;0.40;;;23.00;99.90;;;;;;4878088;29;20464;-71
2021/09/12 12:01:35;;;;;;;0.90;0.40;;;22.90;99.90;;;;;;4878636;29;20483;-71
2021/09/12 12:04:05;;;;;;;0.90;0.40;;;23.10;99.90;;;;;;4861268;29;20467;-70
2021/09/12 12:06:34;;;;;;;0.90;0.40;;;23.20;99.90;;;;;;4878458;29;20448;-69
2021/09/12 12:09:09;;;;;;;0.90;0.40;;;23.40;99.90;;;;;;4879009;29;20420;-71
2021/09/12 12:11:40;;;;;;;0.90;0.40;;;23.50;99.90;;;;;;4864126;29;20939;-72
2021/09/12 12:14:18;;;;;;;0.90;0.40;;;23.60;99.90;;;;;;4878867;29;20478;-69
2021/09/12 12:16:46;;;;;;;0.90;0.40;;;23.70;99.90;;;;;;4878483;29;20467;-69
2021/09/12 12:19:15;;;;;;;0.90;0.40;;;23.70;99.90;;;;;;4878477;29;20427;-69
2021/09/12 12:21:45;;;;;;;0.90;0.40;;;23.80;99.90;;;;;;4878409;29;20451;-69
2021/09/12 12:24:18;;;;;;;0.90;0.40;;;23.90;99.90;;;;;;4878034;29;20441;-70
2021/09/12 12:26:49;;;;;;;0.90;0.40;;;24.20;99.90;;;;;;4877910;29;20435;-70
2021/09/12 12:29:29;;;;;;;0.90;0.40;;;24.40;99.90;;;;;;4876724;29;20444;-70
2021/09/12 12:31:59;;;;;;;0.90;0.40;;;24.50;99.90;;;;;;4877844;29;20451;-70
2021/09/12 12:34:39;;;;;;;0.90;0.40;;;24.50;99.90;;;;;;4877517;29;20487;-71
2021/09/12 12:37:09;;;;;;;0.90;0.40;;;24.50;99.90;;;;;;4876457;29;20846;-71
2021/09/12 12:39:39;;;;;;;0.90;0.40;;;24.40;99.90;;;;;;4876558;29;20783;-70
2021/09/12 12:42:08;;;;;;;0.90;0.40;;;24.50;99.90;;;;;;4877111;29;20942;-71
2021/09/12 12:44:44;;;;;;;0.90;0.40;;;24.50;99.90;;;;;;4876600;29;20439;-69
2021/09/12 12:47:14;;;;;;;0.90;0.40;;;24.50;99.90;;;;;;4876878;29;20430;-71
2021/09/12 12:49:42;;;;;;;0.90;0.40;;;24.50;99.90;;;;;;4876113;29;20491;-72
2021/09/12 12:52:13;;;;;;;0.90;0.40;;;24.30;99.90;;;;;;4876519;29;20559;-69
2021/09/12 12:54:43;;;;;;;0.90;0.50;;;24.00;99.90;;;;;;4876336;29;20431;-72
2021/09/12 12:57:14;;;;;;;0.90;0.40;;;24.00;99.90;;;;;;4876522;29;20479;-70
2021/09/12 12:59:50;;;;;;;0.90;0.40;;;24.20;99.90;;;;;;4876531;29;20455;-69
2021/09/12 13:02:18;;;;;;;0.90;0.40;;;24.30;99.90;;;;;;4876577;29;20417;-69